Terminal Aerodrome Forecast
Issued by NWS Boston, MA

Home | Current Version | Previous Version | Text Only | Print | Product List | Glossary On
Versions: 1 2 3 4 5 6 7 8 9 10 11 12 13 14 15 16 17 18 19 20 21 22 23
000
FTUS41 KBOX 222103 AAA
TAFPVD
TAF AMD
KPVD 222103Z 2221/2318 14008KT 6SM -RA BR OVC006
     FM222300 16010G18KT 4SM -RA BR OVC005
     FM230700 22005KT 2SM BR VCSH OVC003
     FM231100 36005KT 3SM BR BKN003
     FM231300 01005KT P6SM FEW005 SCT030
     FM231400 01006KT P6SM SCT030 SCT200=

USA.gov is the U.S. government's official web portal to all federal, state and local government web resources and services.